Anicuns, Brazil
Current Conditions -  °F | °C
As of 9:00 PM on Thursday 18 Dec 2014 (Local Time) from SBGO Reporting Station
Light Rain Light Rain  
Wind Chill: 23°   Ceiling: 6000
Heat Index: 23°   Visibility: 6mi
Dew Point: 19°   Wind: 2mph
Humidity: 78%   Direction: 270°W
Pressure: 29.94"   Gusts: NA
Location:  16.46°S, 49.96°W
Report Text: SBGO 182300Z 27002KT 9999 -RA FEW045 BKN060 23/19 Q1014
Loading
Personal Weather Stations






























Interactive Weather Map New forecast layout! Learn more

10-Day Weather Forecast

Advertisements
Track Severe Weather on mobile